Ocean — LGUP — position and weather

sailwx.info

Track history (hours):
 
Tides and Currents Weather Stations Pressure Air Temp Water Temp Dewpoint Dewpoint Depression Visibility Wind Speed Wind Dir Waves Ship Positions

Ocean

Last reported at 2015-Jan-18 09:18 UTC. Time now 2015-Jan-25 22:26 UTC.
Position N 63°40' E 009°29'.

Length 33 m; draft 5.4 m.

Type: Fishing. MMSI: 257465500.

Date/timePositionNaut miles runAvg speedWind from/ knotsBaromVisibWave heightAir tempDewpointWater temp
2015-Jan-18 09:18N 63°40' E 009°29'77 7.9
2015-Jan-17 23:32N 64°46' E 011°02'9 9.0
2015-Jan-17 22:33N 64°52' E 011°17'9 8.9
2015-Jan-17 21:33N 64°58' E 011°33'92 9.2
2015-Jan-17 11:33N 66°23' E 012°58'37 8.5
2015-Jan-17 07:14N 66°57' E 013°29'7 8.5
2015-Jan-17 06:24N 67°01' E 013°44'7 8.6
2015-Jan-17 05:33N 67°06' E 013°58'8 8.5
2015-Jan-17 04:33N 67°14' E 014°06'9 8.5
2015-Jan-17 03:33N 67°22' E 014°07'9 8.6
2015-Jan-17 02:33N 67°31' E 014°08'  
2015-Jan-10 21:33N 67°32' E 014°30'9 9.0
2015-Jan-10 20:33N 67°24' E 014°26'8 8.3
2015-Jan-10 19:33N 67°17' E 014°14'19 8.4
2015-Jan-10 17:14N 67°01' E 013°44'30 7.8
2015-Jan-10 13:23N 66°40' E 012°49'9 8.1
2015-Jan-10 12:18N 66°37' E 012°28'7 8.7
2015-Jan-10 11:33N 66°32' E 012°18'6 5.5
2015-Jan-10 10:33N 66°30' E 012°06'1 0.5
2015-Jan-10 09:33N 66°30' E 012°06'0 0.0
2015-Jan-10 08:33N 66°30' E 012°06'0 0.0
2015-Jan-10 07:33N 66°30' E 012°06'0 0.0
2015-Jan-10 06:33N 66°30' E 012°06'0 0.0
2015-Jan-10 05:33N 66°30' E 012°06'0 0.0
2015-Jan-10 04:33N 66°30' E 012°06'0 0.0
2015-Jan-10 03:33N 66°30' E 012°06'0 0.0
2015-Jan-10 02:33N 66°30' E 012°06'0 0.0
2015-Jan-10 01:33N 66°30' E 012°06'0 0.0
2015-Jan-10 00:33N 66°30' E 012°06'0 0.0
2015-Jan-09 23:33N 66°30' E 012°06'0 0.0
2015-Jan-09 22:33N 66°30' E 012°06'0 0.0
2015-Jan-09 21:33N 66°30' E 012°06'0 0.0
2015-Jan-09 20:33N 66°30' E 012°06'0 0.0
2015-Jan-09 19:33N 66°30' E 012°06'0 0.0
2015-Jan-09 18:33N 66°30' E 012°06'0 0.0
2015-Jan-09 17:33N 66°30' E 012°06'3 3.1
2015-Jan-09 16:33N 66°31' E 012°14'8 8.4
2015-Jan-09 15:33N 66°37' E 012°28'9 8.5
2015-Jan-09 14:30N 66°41' E 012°49'24 8.0
2015-Jan-09 11:33N 66°58' E 013°31'11 8.7
2015-Jan-09 10:14N 67°05' E 013°55'6 8.7
2015-Jan-09 09:34N 67°10' E 014°03'9 8.9
2015-Jan-09 08:34N 67°17' E 014°15'8 8.4
2015-Jan-09 07:33N 67°24' E 014°26'  
Track history (hours):
 
Tides and Currents Weather Stations Pressure Air Temp Water Temp Dewpoint Dewpoint Depression Visibility Wind Speed Wind Dir Waves Ship Positions

Ocean

Last reported at 2015-Jan-18 09:18 UTC. Time now 2015-Jan-25 22:26 UTC.
Position N 63°40' E 009°29'.

Length 33 m; draft 5.4 m.

Type: Fishing. MMSI: 257465500.

Date/timePositionNaut miles runAvg speedWind from/ knotsBaromVisibWave heightAir tempDewpointWater temp
2015-Jan-18 09:18N 63°40' E 009°29'77 7.9
2015-Jan-17 23:32N 64°46' E 011°02'9 9.0
2015-Jan-17 22:33N 64°52' E 011°17'9 8.9
2015-Jan-17 21:33N 64°58' E 011°33'92 9.2
2015-Jan-17 11:33N 66°23' E 012°58'37 8.5
2015-Jan-17 07:14N 66°57' E 013°29'7 8.5
2015-Jan-17 06:24N 67°01' E 013°44'7 8.6
2015-Jan-17 05:33N 67°06' E 013°58'8 8.5
2015-Jan-17 04:33N 67°14' E 014°06'9 8.5
2015-Jan-17 03:33N 67°22' E 014°07'9 8.6
2015-Jan-17 02:33N 67°31' E 014°08'  
2015-Jan-10 21:33N 67°32' E 014°30'9 9.0
2015-Jan-10 20:33N 67°24' E 014°26'8 8.3
2015-Jan-10 19:33N 67°17' E 014°14'19 8.4
2015-Jan-10 17:14N 67°01' E 013°44'30 7.8
2015-Jan-10 13:23N 66°40' E 012°49'9 8.1
2015-Jan-10 12:18N 66°37' E 012°28'7 8.7
2015-Jan-10 11:33N 66°32' E 012°18'6 5.5
2015-Jan-10 10:33N 66°30' E 012°06'1 0.5
2015-Jan-10 09:33N 66°30' E 012°06'0 0.0
2015-Jan-10 08:33N 66°30' E 012°06'0 0.0
2015-Jan-10 07:33N 66°30' E 012°06'0 0.0
2015-Jan-10 06:33N 66°30' E 012°06'0 0.0
2015-Jan-10 05:33N 66°30' E 012°06'0 0.0
2015-Jan-10 04:33N 66°30' E 012°06'0 0.0
2015-Jan-10 03:33N 66°30' E 012°06'0 0.0
2015-Jan-10 02:33N 66°30' E 012°06'0 0.0
2015-Jan-10 01:33N 66°30' E 012°06'0 0.0
2015-Jan-10 00:33N 66°30' E 012°06'0 0.0
2015-Jan-09 23:33N 66°30' E 012°06'0 0.0
2015-Jan-09 22:33N 66°30' E 012°06'0 0.0
2015-Jan-09 21:33N 66°30' E 012°06'0 0.0
2015-Jan-09 20:33N 66°30' E 012°06'0 0.0
2015-Jan-09 19:33N 66°30' E 012°06'0 0.0
2015-Jan-09 18:33N 66°30' E 012°06'0 0.0
2015-Jan-09 17:33N 66°30' E 012°06'3 3.1
2015-Jan-09 16:33N 66°31' E 012°14'8 8.4
2015-Jan-09 15:33N 66°37' E 012°28'9 8.5
2015-Jan-09 14:30N 66°41' E 012°49'24 8.0
2015-Jan-09 11:33N 66°58' E 013°31'11 8.7
2015-Jan-09 10:14N 67°05' E 013°55'6 8.7
2015-Jan-09 09:34N 67°10' E 014°03'9 8.9
2015-Jan-09 08:34N 67°17' E 014°15'8 8.4
2015-Jan-09 07:33N 67°24' E 014°26'  

Dump ship's entire track history